Time;durP1;ratioP1;P1;durP2;ratioP2;P2;SDS_P1;SDS_P2;PMS_P1;PMS_P2;Temp;Humidity;BMP_temperature;BMP_pressure;BME280_temperature;BME280_humidity;BME280_pressure;Samples;Min_cycle;Max_cycle;Signal;HPM_P1;HPM_P2
2023/01/13 00:01:04;;;;;;;74.95;72.15;;;8.30;98.00;;;;;;5050744;28;20312;-80
2023/01/13 00:03:30;;;;;;;74.53;71.72;;;8.30;98.10;;;;;;5050684;28;20041;-79
2023/01/13 00:05:58;;;;;;;77.60;74.63;;;8.30;98.10;;;;;;5050617;28;20040;-80
2023/01/13 00:08:24;;;;;;;77.75;74.82;;;8.30;98.10;;;;;;5050161;28;20036;-79
2023/01/13 00:10:50;;;;;;;83.47;80.28;;;8.30;98.10;;;;;;5032530;28;20033;-80
2023/01/13 00:13:15;;;;;;;82.55;79.35;;;8.30;98.00;;;;;;5049316;28;20413;-78
2023/01/13 00:15:41;;;;;;;86.20;82.90;;;8.30;98.00;;;;;;5032966;28;20580;-78
2023/01/13 00:18:07;;;;;;;85.72;82.43;;;8.30;98.00;;;;;;5032635;28;20034;-79
2023/01/13 00:20:33;;;;;;;86.32;82.95;;;8.30;98.00;;;;;;5049435;28;20087;-79
2023/01/13 00:23:00;;;;;;;82.75;79.55;;;8.30;98.00;;;;;;5049203;28;20116;-79
2023/01/13 00:25:25;;;;;;;89.38;85.88;;;8.30;98.10;;;;;;5032605;28;20505;-78
2023/01/13 00:27:51;;;;;;;89.88;86.38;;;8.30;98.10;;;;;;5049495;28;20031;-78
2023/01/13 00:30:17;;;;;;;89.50;86.00;;;8.30;98.10;;;;;;5050219;28;20044;-78
2023/01/13 00:32:42;;;;;;;90.72;87.10;;;8.30;98.00;;;;;;5032739;28;20543;-79
2023/01/13 00:35:08;;;;;;;90.22;86.72;;;8.30;98.00;;;;;;5032895;28;20496;-79
2023/01/13 00:37:36;;;;;;;91.57;87.97;;;8.30;98.10;;;;;;5032580;28;20087;-79
2023/01/13 00:40:03;;;;;;;88.93;85.43;;;8.30;98.10;;;;;;5033018;28;20159;-78
2023/01/13 00:45:12;;;;;;;85.13;81.82;;;8.20;98.00;;;;;;5049320;28;20040;-78
2023/01/13 00:47:38;;;;;;;81.72;78.53;;;8.30;98.10;;;;;;5032168;28;20029;-79
2023/01/13 00:50:04;;;;;;;82.43;79.22;;;8.20;98.00;;;;;;5048591;28;20386;-78
2023/01/13 00:52:32;;;;;;;78.00;75.00;;;8.30;98.10;;;;;;5048575;28;20059;-79
2023/01/13 00:54:57;;;;;;;83.80;80.60;;;8.20;98.00;;;;;;5049714;28;20025;-79
2023/01/13 00:57:23;;;;;;;78.30;75.30;;;8.20;98.10;;;;;;5032077;28;20412;-78
2023/01/13 00:59:49;;;;;;;78.65;75.65;;;8.20;98.10;;;;;;5048457;28;20044;-78
2023/01/13 01:02:14;;;;;;;79.38;76.38;;;8.20;98.00;;;;;;5048403;28;20025;-78
2023/01/13 01:04:40;;;;;;;77.68;74.68;;;8.20;98.10;;;;;;5031590;28;20057;-79
2023/01/13 01:07:07;;;;;;;77.20;74.30;;;8.20;98.10;;;;;;5048519;28;20052;-79
2023/01/13 01:09:33;;;;;;;78.75;75.75;;;8.20;98.10;;;;;;5048259;28;20401;-79
2023/01/13 01:11:59;;;;;;;;;;;8.20;98.10;;;;;;5048595;28;20021;-79
2023/01/13 01:14:26;;;;;;;75.55;72.65;;;8.10;98.10;;;;;;5048220;28;19905;-79
2023/01/13 01:16:52;;;;;;;80.18;77.13;;;8.10;98.10;;;;;;5031277;28;20036;-79
2023/01/13 01:19:18;;;;;;;;;;;8.10;98.10;;;;;;5049187;28;20068;-79
2023/01/13 01:21:43;;;;;;;73.35;70.55;;;8.20;98.10;;;;;;5031324;28;19944;-79
2023/01/13 01:24:09;;;;;;;76.72;73.82;;;8.20;98.10;;;;;;5047889;28;20457;-79
2023/01/13 01:26:35;;;;;;;73.88;71.05;;;8.20;98.10;;;;;;5048064;28;20033;-78
2023/01/13 01:29:03;;;;;;;71.68;68.97;;;8.20;98.30;;;;;;5047833;28;20124;-79
2023/01/13 01:31:31;;;;;;;73.05;70.25;;;8.20;98.10;;;;;;5031420;28;20031;-78
2023/01/13 01:33:58;;;;;;;71.10;68.40;;;8.20;98.10;;;;;;5049075;28;20045;-79
2023/01/13 01:36:25;;;;;;;67.55;64.95;;;8.20;98.10;;;;;;5048885;28;20031;-80
2023/01/13 01:38:51;;;;;;;63.15;60.75;;;8.20;98.10;;;;;;5047911;28;20025;-80
2023/01/13 01:41:19;;;;;;;;;;;8.30;98.20;;;;;;5048229;28;20031;-79
2023/01/13 01:43:58;;;;;;;66.20;63.70;;;8.30;98.20;;;;;;5047775;28;20425;-79
2023/01/13 01:46:41;;;;;;;66.90;64.40;;;8.30;98.10;;;;;;5048950;28;20465;-79
2023/01/13 01:49:31;;;;;;;64.82;62.33;;;8.30;98.20;;;;;;5047466;28;20112;-79
2023/01/13 01:52:05;;;;;;;62.75;60.35;;;8.30;98.10;;;;;;5047621;28;20021;-78
2023/01/13 01:54:46;;;;;;;62.35;59.95;;;8.30;98.10;;;;;;5048623;28;20027;-78
2023/01/13 01:57:17;;;;;;;62.38;59.97;;;8.30;98.10;;;;;;5047012;28;20040;-78
2023/01/13 01:59:43;;;;;;;61.65;59.35;;;8.30;98.10;;;;;;5047427;28;20524;-79
2023/01/13 02:02:09;;;;;;;62.35;59.95;;;8.30;98.10;;;;;;5048498;28;20035;-79
2023/01/13 02:04:42;;;;;;;60.33;58.03;;;8.40;98.20;;;;;;5047328;28;20029;-79
2023/01/13 02:07:08;;;;;;;61.63;59.33;;;8.40;98.10;;;;;;5047187;28;20037;-79
2023/01/13 02:09:35;;;;;;;59.13;56.92;;;8.30;98.10;;;;;;5047403;28;20061;-79
2023/01/13 02:14:45;;;;;;;58.67;56.47;;;8.30;98.10;;;;;;5047612;28;20044;-78
2023/01/13 02:17:20;;;;;;;62.67;60.28;;;8.30;98.10;;;;;;5047216;28;20473;-79
2023/01/13 02:20:13;;;;;;;61.45;59.15;;;8.30;98.10;;;;;;5047481;28;20044;-78
2023/01/13 02:23:00;;;;;;;58.10;55.90;;;8.20;98.10;;;;;;5047177;28;20051;-78
2023/01/13 02:25:44;;;;;;;62.15;59.75;;;8.30;98.20;;;;;;5046939;28;20496;-79
2023/01/13 02:28:33;;;;;;;60.40;58.10;;;8.20;98.10;;;;;;5048301;28;20104;-79
2023/01/13 02:33:58;;;;;;;62.50;60.13;;;8.20;98.10;;;;;;5048561;28;20389;-79
2023/01/13 02:36:58;;;;;;;58.38;56.17;;;8.20;98.10;;;;;;5047036;28;20033;-79
2023/01/13 02:39:33;;;;;;;56.20;54.10;;;8.20;98.10;;;;;;5047020;28;20065;-79
2023/01/13 02:45:25;;;;;;;56.50;54.40;;;8.20;98.20;;;;;;5046987;28;20044;-79
2023/01/13 02:47:54;;;;;;;56.65;54.55;;;8.20;98.20;;;;;;5046244;28;20033;-78
2023/01/13 02:50:49;;;;;;;56.67;54.55;;;8.10;98.20;;;;;;5046790;28;20025;-79
2023/01/13 02:53:21;;;;;;;57.65;55.45;;;8.10;98.20;;;;;;5047747;28;20033;-79
2023/01/13 02:55:51;;;;;;;59.92;57.63;;;8.10;98.20;;;;;;5046597;28;20096;-79
2023/01/13 02:58:21;;;;;;;61.80;59.50;;;8.00;98.20;;;;;;5046579;28;20057;-79
2023/01/13 03:00:47;;;;;;;61.35;59.05;;;8.00;98.20;;;;;;5046837;28;20115;-79
2023/01/13 03:03:13;;;;;;;63.10;60.70;;;8.00;98.20;;;;;;5047882;28;20116;-79
2023/01/13 03:05:42;;;;;;;62.80;60.40;;;8.10;98.20;;;;;;5046704;28;20464;-79
2023/01/13 03:08:30;;;;;;;62.67;60.28;;;8.10;98.30;;;;;;5046588;28;20501;-78
2023/01/13 03:11:02;;;;;;;63.28;60.88;;;8.10;98.20;;;;;;5046026;28;20035;-79
2023/01/13 03:13:46;;;;;;;64.03;61.63;;;8.20;98.20;;;;;;5047345;28;20470;-79
2023/01/13 03:16:27;;;;;;;64.78;62.28;;;8.20;98.20;;;;;;5046142;28;20235;-79
2023/01/13 03:19:05;;;;;;;62.95;60.55;;;8.20;98.20;;;;;;5046062;28;20116;-79
2023/01/13 03:22:04;;;;;;;61.35;59.05;;;8.10;98.20;;;;;;5045775;28;20025;-79
2023/01/13 03:24:45;;;;;;;59.03;56.83;;;8.20;98.20;;;;;;5045865;28;20515;-79
2023/01/13 03:27:26;;;;;;;57.53;55.33;;;8.20;98.20;;;;;;5047312;28;20033;-79
2023/01/13 03:29:54;;;;;;;58.03;55.83;;;8.20;98.20;;;;;;5045947;28;20047;-79
2023/01/13 03:32:26;;;;;;;56.88;54.70;;;8.30;98.20;;;;;;5045779;28;20401;-79
2023/01/13 03:35:32;;;;;;;57.45;55.25;;;8.30;98.20;;;;;;5047187;28;20029;-79
2023/01/13 03:38:31;;;;;;;56.00;53.90;;;8.30;98.20;;;;;;5047090;28;20025;-79
2023/01/13 03:41:01;;;;;;;58.15;55.95;;;8.30;98.20;;;;;;5044979;28;20054;-79
2023/01/13 03:46:30;;;;;;;58.72;56.53;;;8.40;98.20;;;;;;5050903;28;20039;-79
2023/01/13 03:48:58;;;;;;;58.85;56.65;;;8.40;98.20;;;;;;5050592;28;20021;-79
2023/01/13 03:51:29;;;;;;;54.92;52.83;;;8.40;98.20;;;;;;5049290;28;20119;-79
2023/01/13 03:53:59;;;;;;;55.85;53.75;;;8.40;98.20;;;;;;5049560;28;20083;-79
2023/01/13 03:56:34;;;;;;;56.45;54.33;;;8.40;98.20;;;;;;5049263;28;20389;-79
2023/01/13 03:59:03;;;;;;;55.17;53.08;;;8.40;98.20;;;;;;5048858;28;20520;-79
2023/01/13 04:01:49;;;;;;;57.80;55.60;;;8.40;98.10;;;;;;5033215;28;20060;-79
2023/01/13 04:04:33;;;;;;;58.47;56.28;;;8.40;98.10;;;;;;5050201;28;20111;-79
2023/01/13 04:07:23;;;;;;;55.55;53.45;;;8.40;98.10;;;;;;5050414;28;20028;-80
2023/01/13 04:09:54;;;;;;;55.85;53.75;;;8.30;98.20;;;;;;5048696;28;20029;-79
2023/01/13 04:15:17;;;;;;;58.08;55.88;;;8.30;98.20;;;;;;5050275;28;20064;-79
2023/01/13 04:17:44;;;;;;;57.30;55.13;;;8.30;98.20;;;;;;5048675;28;20033;-79
2023/01/13 04:20:10;;;;;;;58.25;56.05;;;8.30;98.20;;;;;;5050169;28;20029;-79
2023/01/13 04:22:35;;;;;;;57.97;55.78;;;8.40;98.10;;;;;;5050041;28;20029;-79
2023/01/13 04:25:01;;;;;;;54.47;52.45;;;8.30;98.10;;;;;;5048843;28;20029;-79
2023/01/13 04:27:27;;;;;;;52.78;50.78;;;8.30;98.10;;;;;;5048674;28;20033;-79
2023/01/13 04:29:52;;;;;;;54.45;52.45;;;8.20;98.20;;;;;;5048524;28;20080;-79
2023/01/13 04:32:18;;;;;;;51.60;49.70;;;8.20;98.20;;;;;;5049747;28;20237;-79
2023/01/13 04:34:44;;;;;;;53.55;51.55;;;8.20;98.20;;;;;;5048522;28;20385;-79
2023/01/13 04:37:10;;;;;;;50.95;49.05;;;8.20;98.20;;;;;;5048572;28;20078;-79
2023/01/13 04:39:36;;;;;;;52.05;50.10;;;8.20;98.20;;;;;;5048408;28;20114;-79
2023/01/13 04:42:01;;;;;;;50.40;48.50;;;8.20;98.10;;;;;;5032218;28;20548;-79
2023/01/13 04:44:30;;;;;;;49.95;48.05;;;8.20;98.10;;;;;;5048050;28;20047;-79
2023/01/13 04:46:57;;;;;;;47.80;46.00;;;8.20;98.20;;;;;;5049407;28;20041;-79
2023/01/13 04:49:23;;;;;;;45.78;44.08;;;8.20;98.20;;;;;;5048124;28;20495;-79
2023/01/13 04:51:49;;;;;;;48.28;46.47;;;8.30;98.20;;;;;;5048106;28;20025;-79
2023/01/13 04:54:15;;;;;;;45.00;43.30;;;8.30;98.20;;;;;;5047075;28;20086;-79
2023/01/13 04:56:41;;;;;;;44.65;42.95;;;8.30;98.20;;;;;;5048088;28;20366;-80
2023/01/13 04:59:09;;;;;;;41.90;40.30;;;8.30;98.20;;;;;;5047884;28;20049;-80
2023/01/13 05:01:34;;;;;;;40.83;39.33;;;8.30;98.20;;;;;;5049200;28;20040;-79
2023/01/13 05:04:00;;;;;;;39.08;37.58;;;8.40;98.20;;;;;;5031188;28;20029;-79
2023/01/13 05:06:26;;;;;;;37.30;35.90;;;8.40;98.10;;;;;;5047719;28;20514;-79
2023/01/13 05:08:51;;;;;;;37.75;36.35;;;8.40;98.10;;;;;;5048775;28;20056;-80
2023/01/13 05:17:01;;;;;;;38.13;36.72;;;8.40;98.10;;;;;;5049284;28;20116;-80
2023/01/13 05:19:35;;;;;;;39.97;38.47;;;8.40;98.10;;;;;;5049121;28;20024;-79
2023/01/13 05:27:30;;;;;;;48.35;46.55;;;8.40;98.10;;;;;;5047992;28;20085;-80
2023/01/13 05:29:56;;;;;;;;;;;8.40;98.10;;;;;;5047940;28;20116;-80
2023/01/13 05:32:23;;;;;;;54.67;52.65;;;8.40;98.10;;;;;;5048656;28;20395;-80
2023/01/13 05:34:49;;;;;;;57.55;55.38;;;8.40;98.00;;;;;;5030628;28;20025;-80
2023/01/13 05:37:15;;;;;;;62.50;60.10;;;8.30;98.00;;;;;;5048425;28;20024;-80
2023/01/13 05:45:10;;;;;;;66.38;63.88;;;8.20;98.00;;;;;;5048622;28;20040;-80
2023/01/13 05:47:36;;;;;;;69.05;66.45;;;8.20;98.00;;;;;;5030329;28;20147;-80
2023/01/13 05:50:02;;;;;;;68.53;65.93;;;8.10;98.00;;;;;;5030333;28;20132;-80
2023/01/13 05:52:28;;;;;;;68.38;65.78;;;8.20;98.10;;;;;;5030383;28;20033;-80
2023/01/13 05:54:54;;;;;;;65.50;63.00;;;8.10;98.10;;;;;;5046772;28;20504;-80
2023/01/13 05:57:19;;;;;;;67.75;65.22;;;8.10;98.10;;;;;;5046706;28;20270;-79
2023/01/13 05:59:45;;;;;;;64.43;62.03;;;8.10;98.10;;;;;;5046763;28;20036;-79
2023/01/13 06:02:11;;;;;;;66.03;63.53;;;8.10;98.00;;;;;;5046930;28;20445;-80
2023/01/13 06:04:36;;;;;;;68.05;65.45;;;8.10;98.00;;;;;;5046699;28;20036;-80
2023/01/13 06:07:02;;;;;;;69.35;66.75;;;8.00;97.90;;;;;;5029932;28;20131;-80
2023/01/13 06:09:28;;;;;;;69.65;67.03;;;7.90;97.90;;;;;;5030285;28;20033;-79
2023/01/13 06:11:53;;;;;;;69.22;66.63;;;7.80;97.90;;;;;;5046544;28;20481;-79
2023/01/13 06:14:19;;;;;;;70.70;68.00;;;7.70;97.90;;;;;;5046726;28;20536;-79
2023/01/13 06:16:45;;;;;;;69.63;66.97;;;7.60;98.00;;;;;;5046548;28;20033;-79
2023/01/13 06:19:14;;;;;;;71.03;68.32;;;7.50;98.10;;;;;;5029912;28;20115;-79
2023/01/13 06:21:41;;;;;;;73.78;70.97;;;7.50;98.10;;;;;;5046346;28;20528;-80
2023/01/13 06:24:07;;;;;;;74.35;71.55;;;7.50;98.10;;;;;;5047742;28;20469;-80
2023/01/13 06:26:39;;;;;;;73.30;70.50;;;7.40;98.10;;;;;;5046452;28;20376;-79
2023/01/13 06:29:05;;;;;;;74.65;71.85;;;7.50;98.20;;;;;;5047635;28;20025;-80
2023/01/13 06:31:34;;;;;;;77.90;74.90;;;7.40;98.10;;;;;;5029830;28;20025;-79
2023/01/13 06:34:06;;;;;;;77.28;74.35;;;7.40;98.10;;;;;;5046221;28;20075;-79
2023/01/13 06:36:39;;;;;;;73.28;70.47;;;7.40;98.20;;;;;;5047835;28;20039;-80
2023/01/13 06:39:07;;;;;;;68.93;66.32;;;7.40;98.30;;;;;;5046271;28;20025;-79
2023/01/13 06:44:18;;;;;;;67.97;65.38;;;7.60;98.40;;;;;;5047803;28;20075;-79
2023/01/13 06:46:44;;;;;;;67.15;64.55;;;7.70;98.20;;;;;;5049971;28;20026;-80
2023/01/13 06:49:10;;;;;;;70.70;68.00;;;7.70;98.10;;;;;;5047597;28;20032;-79
2023/01/13 06:51:36;;;;;;;70.88;68.18;;;7.70;98.10;;;;;;5046552;28;20478;-80
2023/01/13 06:54:02;;;;;;;72.28;69.47;;;7.60;98.10;;;;;;5029585;28;20558;-79
2023/01/13 06:56:27;;;;;;;75.47;72.57;;;7.60;98.10;;;;;;5029631;28;20029;-79
2023/01/13 06:58:53;;;;;;;77.82;74.82;;;7.50;98.10;;;;;;5046713;28;20083;-79
2023/01/13 07:01:19;;;;;;;75.28;72.38;;;7.50;98.10;;;;;;5045853;28;20702;-79
2023/01/13 07:03:44;;;;;;;75.75;72.85;;;7.40;98.10;;;;;;5029396;28;20396;-78
2023/01/13 07:06:10;;;;;;;73.03;70.22;;;7.40;98.10;;;;;;5046879;28;20492;-78
2023/01/13 07:08:36;;;;;;;71.68;68.88;;;7.40;98.20;;;;;;5045524;28;20029;-78
2023/01/13 07:11:02;;;;;;;70.70;68.00;;;7.40;98.30;;;;;;5045783;28;20567;-78
2023/01/13 07:16:12;;;;;;;69.28;66.57;;;7.50;98.30;;;;;;5046179;28;20444;-78
2023/01/13 07:18:38;;;;;;;65.15;62.65;;;7.50;98.20;;;;;;5049885;28;20033;-78
2023/01/13 07:21:09;;;;;;;67.32;64.72;;;7.50;98.20;;;;;;5050946;28;20033;-78
2023/01/13 07:23:40;;;;;;;63.78;61.30;;;7.40;98.20;;;;;;5049459;28;20057;-78
2023/01/13 07:26:08;;;;;;;64.22;61.72;;;7.40;98.20;;;;;;5050682;28;20040;-78
2023/01/13 07:28:34;;;;;;;61.55;59.15;;;7.40;98.20;;;;;;5050458;28;20029;-78
2023/01/13 07:31:00;;;;;;;60.70;58.40;;;7.40;98.20;;;;;;5050626;28;20075;-78
2023/01/13 07:33:26;;;;;;;61.25;58.88;;;7.40;98.20;;;;;;5049240;28;20466;-77
2023/01/13 07:36:01;;;;;;;62.10;59.70;;;7.40;98.20;;;;;;5048990;28;20063;-77
2023/01/13 07:38:27;;;;;;;60.85;58.55;;;7.40;98.20;;;;;;5050443;28;20040;-77
2023/01/13 07:40:52;;;;;;;60.80;58.50;;;7.40;98.20;;;;;;5032958;28;20033;-78
2023/01/13 07:43:33;;;;;;;61.70;59.30;;;7.40;98.20;;;;;;5050947;28;20102;-78
2023/01/13 07:46:03;;;;;;;58.92;56.72;;;7.30;98.20;;;;;;5049064;28;20032;-77
2023/01/13 07:48:29;;;;;;;57.35;55.15;;;7.30;98.20;;;;;;5049030;28;20108;-77
2023/01/13 07:50:55;;;;;;;58.00;55.80;;;7.30;98.20;;;;;;5048880;28;20033;-77
2023/01/13 07:53:23;;;;;;;59.70;57.40;;;7.30;98.20;;;;;;5032496;28;20021;-77
2023/01/13 07:55:49;;;;;;;62.88;60.47;;;7.30;98.20;;;;;;5032225;28;20025;-77
2023/01/13 07:58:15;;;;;;;64.18;61.67;;;7.30;98.20;;;;;;5048443;28;20412;-77
2023/01/13 08:00:41;;;;;;;64.47;61.97;;;7.30;98.20;;;;;;5049994;28;20217;-77
2023/01/13 08:03:06;;;;;;;65.90;63.40;;;7.30;98.20;;;;;;5032129;28;20029;-77
2023/01/13 08:05:34;;;;;;;67.90;65.30;;;7.30;98.20;;;;;;5048249;28;20048;-78
2023/01/13 08:08:00;;;;;;;64.95;62.45;;;7.30;98.20;;;;;;5048450;28;20031;-77
2023/01/13 08:10:26;;;;;;;65.75;63.25;;;7.30;98.20;;;;;;5049582;28;20085;-77
2023/01/13 08:15:36;;;;;;;61.20;58.80;;;7.30;98.20;;;;;;5048970;28;20099;-77
2023/01/13 08:18:01;;;;;;;61.38;58.97;;;7.30;98.30;;;;;;5031726;28;20037;-78
2023/01/13 08:20:27;;;;;;;58.80;56.60;;;7.40;98.20;;;;;;5050563;28;20443;-77
2023/01/13 08:22:57;;;;;;;57.90;55.70;;;7.40;98.20;;;;;;5049510;28;20029;-78
2023/01/13 08:25:23;;;;;;;57.65;55.45;;;7.40;98.20;;;;;;5048369;28;20038;-78
2023/01/13 08:27:49;;;;;;;55.03;52.92;;;7.40;98.20;;;;;;5031423;28;20025;-77
2023/01/13 08:30:15;;;;;;;52.72;50.72;;;7.40;98.20;;;;;;5049473;28;20362;-77
2023/01/13 08:32:48;;;;;;;49.00;47.15;;;7.40;98.20;;;;;;5049699;28;20025;-79
2023/01/13 08:35:16;;;;;;;48.20;46.40;;;7.50;98.30;;;;;;5047732;28;20056;-77
2023/01/13 08:37:42;;;;;;;48.47;46.67;;;7.60;98.30;;;;;;5031153;28;20082;-77
2023/01/13 08:40:08;;;;;;;;;;;7.60;98.20;;;;;;5048025;28;20028;-76
2023/01/13 08:42:34;;;;;;;48.40;46.60;;;7.60;98.20;;;;;;5030945;28;19915;-78
2023/01/13 08:44:59;;;;;;;46.38;44.67;;;7.50;98.10;;;;;;5031238;28;20020;-78
2023/01/13 08:47:28;;;;;;;47.42;45.63;;;7.50;98.10;;;;;;5047615;28;20040;-78
2023/01/13 08:49:54;;;;;;;47.83;46.03;;;7.50;98.20;;;;;;5030905;28;20025;-78
2023/01/13 08:52:20;;;;;;;46.40;44.65;;;7.50;98.20;;;;;;5031045;28;20025;-77
2023/01/13 08:54:46;;;;;;;44.78;43.08;;;7.50;98.20;;;;;;5030897;28;20137;-77
2023/01/13 08:57:14;;;;;;;46.28;44.53;;;7.50;98.20;;;;;;5047208;28;20094;-78
2023/01/13 08:59:40;;;;;;;45.45;43.75;;;7.50;98.20;;;;;;5031052;28;20393;-78
2023/01/13 09:02:17;;;;;;;44.97;43.28;;;7.50;98.30;;;;;;5047194;28;20381;-78
2023/01/13 09:04:43;;;;;;;44.00;42.35;;;7.50;98.30;;;;;;5047100;28;20052;-78
2023/01/13 09:07:09;;;;;;;43.80;42.20;;;7.50;98.20;;;;;;5048073;28;20025;-76
2023/01/13 09:09:35;;;;;;;45.67;43.97;;;7.60;98.20;;;;;;5038590;28;20041;-77
2023/01/13 09:14:45;;;;;;;46.05;44.35;;;7.60;98.20;;;;;;5038919;28;20032;-77
2023/01/13 09:17:11;;;;;;;46.58;44.80;;;7.50;98.20;;;;;;5034760;28;20453;-77
2023/01/13 09:19:37;;;;;;;46.83;45.03;;;7.50;98.20;;;;;;5005938;28;20140;-77
2023/01/13 09:22:03;;;;;;;44.60;42.90;;;7.60;98.30;;;;;;5034077;28;20052;-77
2023/01/13 09:24:29;;;;;;;46.55;44.85;;;7.60;98.30;;;;;;5020448;28;20025;-77
2023/01/13 09:26:54;;;;;;;44.60;42.90;;;7.70;98.40;;;;;;5018039;28;20056;-76
2023/01/13 09:29:20;;;;;;;40.55;39.05;;;7.70;98.30;;;;;;5020916;28;20506;-76
2023/01/13 09:31:46;;;;;;;41.30;39.70;;;7.80;98.40;;;;;;5041346;28;20068;-76
2023/01/13 09:36:58;;;;;;;39.80;38.30;;;8.00;98.40;;;;;;5036428;28;19962;-76
2023/01/13 09:39:24;;;;;;;38.67;37.22;;;8.10;98.40;;;;;;5036273;28;20504;-76
2023/01/13 09:45:03;;;;;;;34.78;33.47;;;8.20;98.40;;;;;;5036909;28;20115;-77
2023/01/13 09:48:11;;;;;;;30.92;29.73;;;8.40;98.60;;;;;;5037763;28;20362;-77
2023/01/13 09:51:08;;;;;;;28.60;27.50;;;8.70;98.80;;;;;;5035884;28;20247;-76
2023/01/13 09:53:42;;;;;;;28.23;27.13;;;8.90;98.60;;;;;;5048601;28;20047;-76
2023/01/13 09:56:09;;;;;;;25.50;24.50;;;9.10;98.60;;;;;;5046624;28;20027;-77
2023/01/13 09:58:35;;;;;;;25.77;24.77;;;9.20;98.50;;;;;;5047801;28;20124;-77
2023/01/13 10:01:26;;;;;;;23.92;23.02;;;9.40;98.50;;;;;;5047389;28;20100;-77
2023/01/13 10:03:53;;;;;;;17.60;16.90;;;9.50;98.70;;;;;;5044812;28;20054;-76
2023/01/13 10:06:35;;;;;;;15.60;14.90;;;9.90;98.90;;;;;;5047419;28;20032;-76
2023/01/13 10:09:01;;;;;;;16.98;16.27;;;10.20;99.00;;;;;;5039413;28;20242;-76
2023/01/13 10:14:21;;;;;;;20.55;19.75;;;10.30;98.10;;;;;;5036831;28;20034;-75
2023/01/13 10:17:06;;;;;;;23.08;22.17;;;10.00;97.80;;;;;;5028693;28;20022;-76
2023/01/13 10:20:01;;;;;;;23.77;22.88;;;9.70;97.80;;;;;;5033612;28;20025;-76
2023/01/13 10:22:36;;;;;;;22.70;21.80;;;9.40;98.10;;;;;;5047438;28;20033;-76
2023/01/13 10:25:17;;;;;;;23.00;22.10;;;9.30;98.20;;;;;;5040701;28;20088;-75
2023/01/13 10:27:48;;;;;;;23.63;22.73;;;9.20;98.20;;;;;;5043305;28;20109;-76
2023/01/13 10:30:29;;;;;;;23.33;22.42;;;9.10;98.30;;;;;;5043978;28;20025;-76
2023/01/13 10:32:58;;;;;;;19.90;19.10;;;9.10;98.30;;;;;;5031860;28;20059;-75
2023/01/13 10:35:56;;;;;;;13.82;13.23;;;9.20;98.80;;;;;;5036815;28;20025;-76
2023/01/13 10:38:24;;;;;;;11.63;11.13;;;9.70;99.50;;;;;;5035082;28;20025;-76
2023/01/13 10:40:54;;;;;;;9.20;8.80;;;10.30;99.40;;;;;;5038621;28;20026;-76
2023/01/13 10:43:20;;;;;;;8.13;7.72;;;10.80;99.40;;;;;;5042186;28;20029;-75
2023/01/13 10:46:09;;;;;;;6.72;6.32;;;11.20;99.30;;;;;;5042685;28;20029;-76
2023/01/13 10:48:40;;;;;;;6.55;6.15;;;11.50;98.90;;;;;;5040343;28;20174;-75
2023/01/13 10:51:13;;;;;;;5.00;4.70;;;11.50;98.40;;;;;;5049129;28;20025;-76
2023/01/13 10:54:11;;;;;;;2.72;2.53;;;11.60;98.70;;;;;;5042242;28;20032;-76
2023/01/13 10:56:39;;;;;;;0.75;0.75;;;11.90;99.10;;;;;;5042868;28;20071;-76
2023/01/13 10:59:25;;;;;;;0.40;0.40;;;12.40;99.30;;;;;;5036886;28;20132;-74
2023/01/13 11:01:54;;;;;;;0.20;0.20;;;12.80;99.20;;;;;;5042406;28;20228;-78
2023/01/13 11:04:34;;;;;;;0.20;0.20;;;13.10;99.10;;;;;;5043779;28;20025;-77
2023/01/13 11:07:01;;;;;;;0.00;0.00;;;13.40;99.20;;;;;;5034478;28;20025;-77
2023/01/13 11:09:29;;;;;;;0.10;0.10;;;13.60;98.80;;;;;;5046252;28;20381;-79
2023/01/13 11:11:56;;;;;;;0.10;0.10;;;13.40;98.20;;;;;;5033166;28;20022;-78
2023/01/13 11:14:44;;;;;;;0.10;0.10;;;13.30;98.80;;;;;;5039087;28;20029;-78
2023/01/13 11:17:21;;;;;;;0.10;0.10;;;13.50;99.00;;;;;;5052557;28;20090;-76
2023/01/13 11:19:50;;;;;;;;;;;13.70;99.00;;;;;;5045340;28;20022;-77
2023/01/13 11:22:22;;;;;;;0.10;0.10;;;14.00;99.10;;;;;;5033251;28;19971;-77
2023/01/13 11:24:50;;;;;;;0.10;0.10;;;14.20;99.10;;;;;;5051864;28;20035;-75
2023/01/13 11:27:32;;;;;;;0.08;0.08;;;14.40;99.10;;;;;;5049448;28;20037;-76
2023/01/13 11:30:17;;;;;;;0.10;0.10;;;14.60;99.00;;;;;;5039939;28;20021;-77
2023/01/13 11:33:14;;;;;;;0.10;0.10;;;14.60;98.80;;;;;;5041645;28;20022;-76
2023/01/13 11:35:49;;;;;;;0.00;0.00;;;14.60;98.90;;;;;;5033892;28;20082;-76
2023/01/13 11:38:27;;;;;;;0.10;0.10;;;14.70;99.00;;;;;;5039491;28;20393;-76
2023/01/13 11:40:59;;;;;;;0.10;0.10;;;14.70;98.90;;;;;;5045924;28;20032;-77
2023/01/13 11:43:30;;;;;;;0.00;0.00;;;14.90;99.20;;;;;;5039241;28;20049;-76
2023/01/13 11:45:58;;;;;;;0.00;0.00;;;15.10;99.20;;;;;;5039768;28;20017;-77
2023/01/13 11:48:28;;;;;;;0.00;0.00;;;15.30;99.10;;;;;;5050143;28;20025;-76
2023/01/13 11:51:03;;;;;;;0.00;0.00;;;15.40;99.20;;;;;;5047696;28;20743;-76
2023/01/13 11:53:55;;;;;;;0.00;0.00;;;15.50;99.10;;;;;;5043597;28;20033;-76
2023/01/13 11:57:05;;;;;;;0.00;0.00;;;15.80;99.30;;;;;;5038192;28;20161;-75
2023/01/13 12:00:26;;;;;;;0.00;0.00;;;15.90;99.20;;;;;;5042643;28;20127;-74
2023/01/13 12:03:23;;;;;;;0.00;0.00;;;16.10;99.10;;;;;;5005413;28;20062;-76
2023/01/13 12:06:10;;;;;;;0.00;0.00;;;16.10;99.10;;;;;;5040364;28;20047;-77
2023/01/13 12:08:43;;;;;;;0.05;0.05;;;16.00;98.90;;;;;;5031431;28;20026;-78
2023/01/13 12:12:18;;;;;;;0.00;0.00;;;15.90;99.00;;;;;;5034404;28;20029;-77
2023/01/13 12:15:02;;;;;;;0.00;0.00;;;15.90;99.00;;;;;;5036624;28;20021;-77
2023/01/13 12:17:53;;;;;;;0.00;0.00;;;15.80;99.00;;;;;;5031402;28;20025;-78
2023/01/13 12:20:31;;;;;;;0.10;0.10;;;15.60;98.90;;;;;;5034166;28;20044;-76
2023/01/13 12:23:02;;;;;;;0.00;0.00;;;15.50;98.90;;;;;;5037135;28;20044;-75
2023/01/13 12:25:41;;;;;;;0.00;0.00;;;15.50;99.20;;;;;;5039838;28;20488;-73
2023/01/13 12:28:31;;;;;;;0.00;0.00;;;15.50;99.20;;;;;;5043595;28;20112;-76
2023/01/13 12:31:01;;;;;;;0.00;0.00;;;15.50;99.30;;;;;;5034413;28;20018;-76
2023/01/13 12:33:39;;;;;;;0.00;0.00;;;15.50;99.00;;;;;;5042138;28;20017;-77
2023/01/13 12:36:15;;;;;;;0.00;0.00;;;15.40;98.90;;;;;;5046370;28;20048;-77
2023/01/13 12:38:48;;;;;;;0.00;0.00;;;15.20;99.00;;;;;;5035611;28;20030;-76
2023/01/13 12:44:28;;;;;;;0.00;0.00;;;15.10;99.00;;;;;;5029696;28;20040;-76
2023/01/13 12:46:55;;;;;;;0.00;0.00;;;14.70;98.40;;;;;;5036858;28;20024;-75
2023/01/13 12:49:22;;;;;;;0.00;0.00;;;14.20;98.10;;;;;;5042891;28;20040;-76
2023/01/13 12:51:51;;;;;;;0.00;0.00;;;13.80;98.20;;;;;;5046189;28;20021;-76
2023/01/13 12:54:29;;;;;;;0.00;0.00;;;13.50;98.20;;;;;;5039180;28;20351;-76
2023/01/13 12:56:55;;;;;;;0.00;0.00;;;13.20;98.30;;;;;;5042877;28;20100;-76
2023/01/13 12:59:21;;;;;;;0.00;0.00;;;13.00;98.50;;;;;;5036830;28;20028;-76
2023/01/13 13:01:49;;;;;;;0.00;0.00;;;12.90;98.50;;;;;;5036432;28;20033;-77
2023/01/13 13:04:19;;;;;;;0.00;0.00;;;12.80;98.50;;;;;;5031034;28;20067;-77
2023/01/13 13:07:02;;;;;;;0.00;0.00;;;12.70;98.60;;;;;;5046192;28;20376;-76
2023/01/13 13:10:07;;;;;;;0.00;0.00;;;12.70;98.60;;;;;;5036773;28;20076;-74
2023/01/13 13:15:26;;;;;;;0.00;0.00;;;12.60;98.50;;;;;;5032294;28;20028;-76
2023/01/13 13:18:15;;;;;;;0.00;0.00;;;12.50;98.40;;;;;;5044807;28;20079;-78
2023/01/13 13:21:05;;;;;;;0.00;0.00;;;12.40;98.20;;;;;;5032657;28;20286;-76
2023/01/13 13:24:03;;;;;;;0.00;0.00;;;12.20;98.30;;;;;;5038259;28;20484;-75
2023/01/13 13:26:34;;;;;;;0.00;0.00;;;12.10;98.40;;;;;;5041526;28;20052;-74
2023/01/13 13:29:07;;;;;;;0.00;0.00;;;12.10;98.40;;;;;;5035693;28;20108;-76
2023/01/13 13:31:47;;;;;;;0.05;0.05;;;12.10;98.50;;;;;;5049550;28;20025;-76
2023/01/13 13:34:13;;;;;;;1.17;0.52;;;12.20;98.50;;;;;;5049373;28;20021;-75
2023/01/13 13:37:02;;;;;;;0.00;0.00;;;12.20;98.40;;;;;;5049521;28;20036;-75
2023/01/13 13:48:49;;;;;;;0.10;0.10;;;12.10;98.10;;;;;;5049163;28;20032;-76
2023/01/13 13:51:30;;;;;;;0.10;0.10;;;12.00;98.20;;;;;;5026170;28;20044;-76
2023/01/13 13:53:58;;;;;;;0.10;0.10;;;12.10;98.30;;;;;;5048470;28;20147;-75
2023/01/13 13:56:27;;;;;;;0.00;0.00;;;12.10;98.40;;;;;;5048805;28;20025;-76
2023/01/13 13:58:54;;;;;;;0.00;0.00;;;12.10;98.30;;;;;;5048364;28;20063;-76
2023/01/13 14:01:27;;;;;;;;;;;12.20;98.50;;;;;;5047852;28;20029;-72
2023/01/13 14:04:25;;;;;;;0.00;0.00;;;12.20;98.20;;;;;;5048625;28;19971;-73
2023/01/13 14:06:57;;;;;;;0.00;0.00;;;12.20;98.30;;;;;;5048377;28;20033;-73
2023/01/13 14:09:25;;;;;;;0.00;0.00;;;12.20;98.10;;;;;;5047080;28;20493;-69
2023/01/13 14:11:57;;;;;;;0.00;0.00;;;12.20;98.00;;;;;;5048531;28;20064;-75
2023/01/13 14:14:23;;;;;;;0.00;0.00;;;12.00;98.00;;;;;;5049525;28;20021;-75